createdAt,value
2018-03-06T00:00:30.900Z,37.05
2018-03-06T00:02:57.791Z,36.15
2018-03-06T00:05:24.687Z,36.55
2018-03-06T00:07:51.559Z,37.08
2018-03-06T00:10:18.456Z,36.53
2018-03-06T00:12:45.331Z,37.20
2018-03-06T00:15:12.225Z,36.90
2018-03-06T00:17:39.110Z,36.78
2018-03-06T00:20:05.988Z,37.70
2018-03-06T00:22:33.123Z,37.05
2018-03-06T00:24:59.959Z,38.65
2018-03-06T00:27:26.824Z,37.28
2018-03-06T00:29:53.703Z,37.10
2018-03-06T00:32:20.571Z,36.83
2018-03-06T00:34:47.750Z,36.40
2018-03-06T00:37:14.599Z,37.50
2018-03-06T00:39:41.430Z,37.50
2018-03-06T00:42:08.340Z,38.10
2018-03-06T00:44:35.531Z,39.05
2018-03-06T00:47:02.413Z,38.25
2018-03-06T00:49:29.294Z,38.40
2018-03-06T00:51:56.490Z,37.97
2018-03-06T00:54:23.360Z,38.25
2018-03-06T00:56:50.573Z,37.97
2018-03-06T00:59:17.447Z,37.28
2018-03-06T01:01:44.559Z,38.22
2018-03-06T01:04:11.413Z,38.92
2018-03-06T01:06:38.319Z,38.58
2018-03-06T01:09:05.248Z,38.90
2018-03-06T01:11:32.448Z,38.42
2018-03-06T01:14:00.185Z,39.03
2018-03-06T01:16:27.360Z,39.63
2018-03-06T01:18:54.426Z,38.45
2018-03-06T01:21:21.668Z,38.45
2018-03-06T01:23:48.517Z,39.05
2018-03-06T01:26:15.362Z,38.97
2018-03-06T01:28:42.603Z,38.08
2018-03-06T01:31:09.752Z,39.70
2018-03-06T01:33:36.668Z,39.05
2018-03-06T01:36:03.576Z,39.38
2018-03-06T01:38:30.457Z,39.45
2018-03-06T01:40:57.535Z,39.63
2018-03-06T01:43:24.688Z,39.42
2018-03-06T01:45:51.565Z,39.17
2018-03-06T01:48:18.684Z,39.60
2018-03-06T01:50:45.594Z,38.70
2018-03-06T01:53:12.422Z,38.10
2018-03-06T01:55:39.255Z,39.80
2018-03-06T01:58:06.122Z,39.00
2018-03-06T02:00:33.021Z,39.08
2018-03-06T02:02:59.909Z,39.22
2018-03-06T02:05:26.783Z,37.78
2018-03-06T02:07:53.661Z,39.25
2018-03-06T02:10:20.887Z,38.67
2018-03-06T02:12:47.768Z,38.50
2018-03-06T02:15:14.644Z,37.53
2018-03-06T02:17:41.504Z,37.93
2018-03-06T02:20:08.402Z,39.38
2018-03-06T02:22:35.277Z,39.97
2018-03-06T02:25:02.156Z,39.72
2018-03-06T02:27:29.044Z,39.00
2018-03-06T02:29:55.984Z,37.72
2018-03-06T02:32:22.827Z,39.90
2018-03-06T02:34:49.927Z,39.05
2018-03-06T02:37:16.817Z,38.38
2018-03-06T02:39:43.676Z,38.75
2018-03-06T02:42:10.566Z,40.30
2018-03-06T02:44:37.414Z,39.35
2018-03-06T02:47:04.274Z,37.97
2018-03-06T02:49:31.138Z,38.80
2018-03-06T02:51:57.964Z,38.20
2018-03-06T02:54:24.812Z,36.83
2018-03-06T02:56:51.667Z,37.25
2018-03-06T02:59:18.507Z,38.67
2018-03-06T03:01:45.618Z,38.67
2018-03-06T03:04:12.508Z,39.25
2018-03-06T03:06:39.355Z,36.35
2018-03-06T03:09:06.553Z,38.53
2018-03-06T03:11:33.457Z,36.78
2018-03-06T03:14:00.652Z,37.38
2018-03-06T03:16:27.511Z,36.92
2018-03-06T03:18:54.749Z,36.92
2018-03-06T03:21:21.590Z,35.72
2018-03-06T03:23:48.456Z,37.50
2018-03-06T03:26:15.332Z,36.63
2018-03-06T03:28:42.204Z,37.03
2018-03-06T03:31:09.369Z,35.25
2018-03-06T03:33:36.263Z,35.20
2018-03-06T03:36:03.094Z,34.30
2018-03-06T03:38:29.925Z,35.80
2018-03-06T03:40:56.881Z,36.97
2018-03-06T03:43:23.755Z,33.97
2018-03-06T03:45:50.836Z,35.03
2018-03-06T03:48:17.703Z,34.47
2018-03-06T03:50:44.835Z,35.35
2018-03-06T03:53:11.667Z,37.10
2018-03-06T03:55:38.829Z,35.53
2018-03-06T03:58:05.708Z,36.10
2018-03-06T04:00:33.431Z,37.58
2018-03-06T04:03:00.309Z,38.20
2018-03-06T04:05:27.180Z,37.47
2018-03-06T04:07:54.275Z,38.43
2018-03-06T04:10:21.172Z,38.00
2018-03-06T04:12:48.045Z,38.88
2018-03-06T04:15:14.924Z,40.30
2018-03-06T04:17:41.856Z,39.88
2018-03-06T04:20:08.994Z,41.17
2018-03-06T04:22:35.890Z,39.90
2018-03-06T04:25:03.094Z,40.47
2018-03-06T04:27:30.557Z,40.65
2018-03-06T04:29:57.698Z,41.17
2018-03-06T04:32:24.629Z,40.30
2018-03-06T04:34:51.467Z,39.80
2018-03-06T04:37:18.373Z,40.65
2018-03-06T04:39:45.247Z,39.70
2018-03-06T04:42:12.426Z,39.72
2018-03-06T04:44:39.580Z,39.17
2018-03-06T04:47:06.726Z,38.40
2018-03-06T04:49:33.600Z,38.70
2018-03-06T04:52:00.480Z,39.60
2018-03-06T04:54:27.348Z,38.83
2018-03-06T04:56:54.183Z,38.33
2018-03-06T04:59:21.048Z,39.10
2018-03-06T05:01:47.955Z,39.03
2018-03-06T05:04:14.860Z,39.03
2018-03-06T05:06:41.706Z,39.58
2018-03-06T05:09:08.565Z,39.65
2018-03-06T05:11:35.679Z,39.47
2018-03-06T05:14:03.026Z,39.10
2018-03-06T05:16:30.181Z,40.45
2018-03-06T05:18:57.038Z,38.75
2018-03-06T05:21:23.916Z,39.88
2018-03-06T05:23:50.859Z,39.20
2018-03-06T05:26:18.071Z,37.58
2018-03-06T05:28:44.947Z,38.40
2018-03-06T05:31:11.865Z,39.20
2018-03-06T05:33:38.741Z,38.57
2018-03-06T05:36:05.640Z,39.70
2018-03-06T05:38:32.548Z,37.50
2018-03-06T05:40:59.740Z,38.77
2018-03-06T05:43:26.888Z,38.60
2018-03-06T05:45:53.762Z,38.20
2018-03-06T05:48:20.983Z,37.05
2018-03-06T05:50:48.135Z,37.33
2018-03-06T05:53:15.040Z,38.78
2018-03-06T05:55:41.877Z,38.15
2018-03-06T05:58:08.772Z,38.70
2018-03-06T06:00:35.668Z,36.77
2018-03-06T06:03:02.560Z,37.17
2018-03-06T06:05:30.534Z,37.00
2018-03-06T06:07:57.408Z,38.03
2018-03-06T06:10:24.259Z,37.75
2018-03-06T06:12:51.106Z,38.20
2018-03-06T06:15:17.947Z,37.88
2018-03-06T06:17:44.791Z,40.00
2018-03-06T06:20:11.996Z,38.17
2018-03-06T06:22:39.143Z,37.85
2018-03-06T06:25:05.987Z,39.08
2018-03-06T06:27:32.854Z,38.05
2018-03-06T06:29:59.743Z,38.20
2018-03-06T06:32:26.585Z,37.13
2018-03-06T06:34:53.663Z,37.25
2018-03-06T06:37:20.920Z,37.03
2018-03-06T06:39:48.073Z,37.40
2018-03-06T06:42:14.981Z,37.65
2018-03-06T06:44:41.798Z,36.97
2018-03-06T06:47:09.012Z,36.00
2018-03-06T06:49:35.926Z,35.20
2018-03-06T06:52:03.103Z,36.65
2018-03-06T06:54:30.251Z,35.80
2018-03-06T06:56:57.402Z,36.83
2018-03-06T06:59:24.256Z,36.03
2018-03-06T07:01:51.092Z,37.33
2018-03-06T07:04:17.946Z,34.92
2018-03-06T07:06:44.814Z,36.20
2018-03-06T07:09:11.668Z,36.27
2018-03-06T07:11:38.535Z,36.90
2018-03-06T07:14:05.611Z,36.72
2018-03-06T07:16:32.439Z,35.20
2018-03-06T07:18:59.308Z,36.33
2018-03-06T07:21:26.188Z,36.45
2018-03-06T07:23:53.044Z,37.53
2018-03-06T07:26:19.931Z,36.20
2018-03-06T07:28:47.088Z,36.38
2018-03-06T07:31:13.947Z,35.87
2018-03-06T07:33:40.804Z,37.60
2018-03-06T07:36:07.636Z,36.78
2018-03-06T07:38:34.759Z,36.17
2018-03-06T07:41:01.585Z,35.88
2018-03-06T07:43:28.429Z,36.35
2018-03-06T07:45:55.273Z,35.67
2018-03-06T07:48:22.452Z,34.95
2018-03-06T07:50:49.366Z,35.47
2018-03-06T07:53:16.216Z,34.40
2018-03-06T07:55:43.389Z,35.40
2018-03-06T07:58:10.532Z,35.20
2018-03-06T08:00:37.472Z,34.28
2018-03-06T08:03:04.312Z,34.80
2018-03-06T08:05:31.152Z,35.05
2018-03-06T08:07:58.012Z,35.93
2018-03-06T08:10:25.164Z,35.23
2018-03-06T08:12:52.001Z,35.65
2018-03-06T08:15:18.854Z,34.47
2018-03-06T08:17:45.687Z,35.30
2018-03-06T08:20:12.743Z,36.13
2018-03-06T08:22:39.567Z,36.37
2018-03-06T08:25:06.411Z,36.13
2018-03-06T08:27:33.235Z,36.40
2018-03-06T08:30:00.425Z,37.28
2018-03-06T08:32:27.293Z,36.22
2018-03-06T08:34:54.474Z,36.90
2018-03-06T08:37:21.453Z,36.80
2018-03-06T08:39:48.376Z,37.58
2018-03-06T08:42:15.449Z,36.10
2018-03-06T08:44:42.350Z,37.30
2018-03-06T08:47:09.203Z,37.70
2018-03-06T08:49:36.143Z,37.67
2018-03-06T08:52:03.045Z,37.40
2018-03-06T08:54:29.873Z,36.35
2018-03-06T08:56:56.791Z,36.53
2018-03-06T08:59:23.717Z,37.08
2018-03-06T09:01:50.920Z,36.55
2018-03-06T09:04:17.806Z,35.92
2018-03-06T09:06:45.014Z,35.65
2018-03-06T09:09:11.926Z,35.88
2018-03-06T09:11:38.774Z,36.10
2018-03-06T09:14:05.648Z,35.72
2018-03-06T09:16:32.533Z,35.55
2018-03-06T09:18:59.394Z,36.28
2018-03-06T09:21:26.585Z,35.83
2018-03-06T09:23:53.468Z,34.03
2018-03-06T09:26:20.339Z,34.40
2018-03-06T09:28:47.187Z,35.83
2018-03-06T09:31:14.067Z,34.33
2018-03-06T09:33:40.912Z,35.55
2018-03-06T09:36:07.781Z,35.60
2018-03-06T09:38:34.636Z,35.63
2018-03-06T09:41:01.534Z,34.05
2018-03-06T09:43:28.408Z,36.00
2018-03-06T09:45:55.253Z,34.78
2018-03-06T09:48:22.144Z,35.70
2018-03-06T09:50:49.017Z,35.33
2018-03-06T09:53:15.856Z,34.63
2018-03-06T09:55:42.745Z,35.13
2018-03-06T09:58:09.597Z,34.45
2018-03-06T10:00:36.436Z,36.90
2018-03-06T10:03:03.672Z,35.05
2018-03-06T10:05:30.875Z,35.40
2018-03-06T10:07:57.737Z,35.60
2018-03-06T10:10:24.630Z,34.90
2018-03-06T10:12:51.486Z,36.45
2018-03-06T10:15:18.667Z,36.10
2018-03-06T10:17:45.535Z,37.05
2018-03-06T10:20:12.409Z,35.55
2018-03-06T10:22:39.302Z,36.38
2018-03-06T10:25:06.923Z,38.28
2018-03-06T10:27:33.794Z,37.35
2018-03-06T10:30:00.701Z,40.05
2018-03-06T10:32:27.909Z,38.47
2018-03-06T10:34:54.855Z,38.08
2018-03-06T10:37:21.754Z,38.35
2018-03-06T10:39:48.633Z,38.97
2018-03-06T10:42:15.487Z,39.03
2018-03-06T10:44:42.319Z,39.15
2018-03-06T10:47:09.253Z,40.15
2018-03-06T10:49:36.833Z,40.22
2018-03-06T10:52:03.729Z,40.60
2018-03-06T10:54:30.621Z,41.60
2018-03-06T10:56:57.504Z,40.90
2018-03-06T10:59:24.415Z,39.10
2018-03-06T11:01:51.273Z,40.47
2018-03-06T11:04:18.180Z,40.15
2018-03-06T11:06:45.086Z,40.28
2018-03-06T11:09:11.927Z,41.20
2018-03-06T11:11:39.048Z,40.28
2018-03-06T11:14:05.932Z,41.35
2018-03-06T11:16:32.850Z,41.30
2018-03-06T11:18:59.701Z,41.65
2018-03-06T11:21:26.579Z,41.78
2018-03-06T11:23:53.467Z,41.70
2018-03-06T11:26:20.313Z,41.67
2018-03-06T11:28:47.229Z,41.30
2018-03-06T11:31:14.144Z,40.35
2018-03-06T11:33:41.053Z,40.83
2018-03-06T11:36:07.928Z,40.42
2018-03-06T11:38:35.129Z,41.28
2018-03-06T11:41:02.286Z,41.70
2018-03-06T11:43:29.182Z,42.20
2018-03-06T11:45:56.145Z,41.78
2018-03-06T11:48:23.030Z,41.85
2018-03-06T11:50:50.160Z,41.80
2018-03-06T11:53:17.312Z,41.97
2018-03-06T11:55:44.459Z,41.00
2018-03-06T11:58:11.620Z,41.57
2018-03-06T12:00:38.627Z,41.00
2018-03-06T12:03:05.527Z,41.40
2018-03-06T12:05:33.424Z,41.13
2018-03-06T12:08:00.538Z,40.20
2018-03-06T12:10:27.797Z,42.03
2018-03-06T12:12:54.674Z,41.35
2018-03-06T12:15:21.532Z,41.40
2018-03-06T12:17:48.401Z,41.00
2018-03-06T12:20:15.253Z,40.63
2018-03-06T12:22:42.146Z,41.07
2018-03-06T12:25:09.348Z,39.92
2018-03-06T12:27:37.009Z,39.50
2018-03-06T12:30:04.178Z,38.72
2018-03-06T12:32:31.304Z,40.40
2018-03-06T12:34:58.210Z,40.00
2018-03-06T12:37:25.168Z,40.45
2018-03-06T12:39:52.106Z,42.00
2018-03-06T12:42:19.026Z,41.90
2018-03-06T12:44:45.879Z,40.65
2018-03-06T12:47:12.762Z,40.58
2018-03-06T12:49:39.642Z,40.03
2018-03-06T12:52:06.470Z,40.15
2018-03-06T12:54:33.372Z,41.17
2018-03-06T12:57:00.546Z,40.70
2018-03-06T12:59:27.986Z,41.30
2018-03-06T13:01:54.993Z,41.90
2018-03-06T13:04:21.917Z,40.30
2018-03-06T13:06:49.167Z,39.38
2018-03-06T13:09:16.061Z,40.60
2018-03-06T13:11:42.964Z,37.33
2018-03-06T13:14:09.824Z,36.10
2018-03-06T13:16:36.707Z,36.25
2018-03-06T13:19:03.592Z,37.00
2018-03-06T13:21:30.415Z,37.20
2018-03-06T13:23:57.273Z,36.53
2018-03-06T13:26:24.204Z,36.05
2018-03-06T13:28:51.114Z,34.80
2018-03-06T13:31:17.994Z,34.47
2018-03-06T13:33:45.158Z,37.08
2018-03-06T13:36:12.244Z,35.67
2018-03-06T13:38:39.127Z,34.10
2018-03-06T13:41:06.007Z,35.42
2018-03-06T13:43:32.924Z,34.35
2018-03-06T13:45:59.829Z,33.78
2018-03-06T13:48:26.720Z,33.28
2018-03-06T13:50:53.558Z,32.28
2018-03-06T13:53:20.411Z,32.65
2018-03-06T13:55:47.274Z,32.80
2018-03-06T13:58:14.180Z,33.57
2018-03-06T14:00:41.111Z,34.50
2018-03-06T14:03:07.991Z,33.97
2018-03-06T14:05:35.140Z,33.22
2018-03-06T14:08:02.033Z,34.40
2018-03-06T14:10:28.892Z,32.00
2018-03-06T14:12:55.764Z,32.67
2018-03-06T14:15:22.613Z,31.33
2018-03-06T14:17:49.464Z,31.98
2018-03-06T14:20:16.362Z,31.67
2018-03-06T14:22:43.211Z,31.20
2018-03-06T14:25:10.088Z,32.33
2018-03-06T14:27:36.903Z,31.50
2018-03-06T14:30:03.789Z,32.00
2018-03-06T14:32:30.631Z,32.17
2018-03-06T14:34:57.769Z,30.88
2018-03-06T14:37:24.682Z,31.27
2018-03-06T14:39:51.868Z,32.13
2018-03-06T14:42:18.703Z,31.85
2018-03-06T14:44:45.859Z,33.50
2018-03-06T14:47:12.709Z,32.85
2018-03-06T14:49:39.848Z,33.65
2018-03-06T14:52:07.002Z,32.97
2018-03-06T14:54:33.821Z,35.13
2018-03-06T14:57:00.687Z,34.17
2018-03-06T14:59:27.561Z,35.07
2018-03-06T15:01:54.387Z,35.90
2018-03-06T15:04:21.252Z,37.10
2018-03-06T15:06:48.079Z,38.42
2018-03-06T15:09:15.208Z,36.17
2018-03-06T15:11:42.039Z,36.17
2018-03-06T15:14:09.204Z,37.03
2018-03-06T15:16:36.027Z,39.85
2018-03-06T15:19:03.200Z,39.13
2018-03-06T15:21:30.065Z,38.30
2018-03-06T15:23:56.899Z,36.20
2018-03-06T15:26:24.027Z,38.30
2018-03-06T15:28:51.179Z,36.87
2018-03-06T15:31:18.339Z,37.33
2018-03-06T15:33:45.233Z,37.58
2018-03-06T15:36:12.079Z,38.30
2018-03-06T15:38:38.919Z,39.33
2018-03-06T15:41:06.007Z,38.58
2018-03-06T15:43:32.832Z,38.87
2018-03-06T15:46:00.010Z,38.25
2018-03-06T15:48:26.834Z,38.37
2018-03-06T15:50:53.792Z,38.78
2018-03-06T15:53:20.948Z,39.13
2018-03-06T15:55:48.098Z,37.97
2018-03-06T15:58:14.996Z,39.10
2018-03-06T16:00:41.808Z,39.77
2018-03-06T16:03:08.656Z,39.10
2018-03-06T16:05:35.771Z,39.35
2018-03-06T16:08:02.926Z,39.55
2018-03-06T16:10:29.792Z,40.67
2018-03-06T16:12:56.677Z,42.88
2018-03-06T16:15:23.560Z,46.22
2018-03-06T16:17:50.429Z,44.88
2018-03-06T16:20:17.276Z,45.20
2018-03-06T16:22:44.147Z,44.90
2018-03-06T16:25:11.244Z,46.60
2018-03-06T16:27:38.137Z,48.85
2018-03-06T16:30:05.065Z,48.97
2018-03-06T16:32:31.942Z,47.97
2018-03-06T16:34:58.787Z,49.92
2018-03-06T16:37:25.640Z,49.92
2018-03-06T16:39:52.576Z,49.42
2018-03-06T16:42:19.516Z,49.93
2018-03-06T16:44:46.377Z,50.70
2018-03-06T16:47:13.276Z,50.67
2018-03-06T16:49:40.184Z,51.28
2018-03-06T16:52:07.083Z,49.58
2018-03-06T16:54:33.974Z,51.05
2018-03-06T16:57:00.839Z,49.97
2018-03-06T16:59:27.732Z,50.30
2018-03-06T17:01:54.571Z,50.47
2018-03-06T17:04:21.481Z,50.65
2018-03-06T17:06:48.391Z,50.20
2018-03-06T17:09:15.272Z,51.03
2018-03-06T17:11:42.193Z,50.85
2018-03-06T17:14:09.090Z,52.20
2018-03-06T17:16:35.987Z,50.47
2018-03-06T17:19:02.831Z,51.95
2018-03-06T17:21:29.706Z,51.83
2018-03-06T17:23:56.607Z,51.35
2018-03-06T17:26:23.480Z,52.97
2018-03-06T17:28:50.591Z,52.20
2018-03-06T17:31:17.485Z,52.20
2018-03-06T17:33:44.380Z,52.70
2018-03-06T17:36:11.531Z,50.85
2018-03-06T17:38:38.395Z,52.50
2018-03-06T17:41:05.277Z,51.20
2018-03-06T17:43:32.160Z,50.95
2018-03-06T17:45:59.316Z,51.97
2018-03-06T17:48:26.462Z,52.30
2018-03-06T17:50:53.322Z,52.58
2018-03-06T17:53:20.200Z,53.70
2018-03-06T17:55:47.066Z,53.10
2018-03-06T17:58:13.937Z,55.40
2018-03-06T18:00:40.798Z,55.80
2018-03-06T18:03:07.713Z,53.67
2018-03-06T18:05:34.582Z,52.95
2018-03-06T18:08:01.460Z,53.90
2018-03-06T18:10:28.366Z,53.87
2018-03-06T18:12:55.513Z,53.45
2018-03-06T18:15:22.426Z,55.03
2018-03-06T18:17:49.334Z,55.95
2018-03-06T18:20:16.188Z,54.05
2018-03-06T18:22:43.082Z,54.45
2018-03-06T18:25:10.021Z,55.33
2018-03-06T18:27:36.876Z,55.83
2018-03-06T18:30:04.032Z,55.75
2018-03-06T18:32:30.892Z,54.03
2018-03-06T18:34:57.756Z,56.03
2018-03-06T18:37:24.649Z,55.90
2018-03-06T18:39:51.502Z,57.90
2018-03-06T18:42:18.656Z,55.47
2018-03-06T18:44:45.484Z,54.78
2018-03-06T18:47:12.319Z,55.63
2018-03-06T18:49:45.223Z,55.03
2018-03-06T18:52:12.099Z,55.60
2018-03-06T18:54:38.973Z,56.35
2018-03-06T18:57:06.168Z,56.35
2018-03-06T18:59:33.077Z,55.80
2018-03-06T19:02:08.050Z,56.47
2018-03-06T19:04:41.136Z,54.03
2018-03-06T19:07:08.292Z,55.60
2018-03-06T19:09:35.437Z,55.45
2018-03-06T19:12:02.280Z,54.90
2018-03-06T19:14:29.119Z,54.78
2018-03-06T19:16:56.270Z,54.70
2018-03-06T19:19:23.140Z,54.55
2018-03-06T19:21:50.003Z,54.30
2018-03-06T19:24:16.884Z,53.33
2018-03-06T19:26:44.052Z,55.17
2018-03-06T19:29:10.898Z,54.22
2018-03-06T19:31:38.053Z,54.88
2018-03-06T19:34:04.878Z,54.10
2018-03-06T19:36:31.714Z,55.65
2018-03-06T19:38:58.779Z,53.90
2018-03-06T19:41:25.668Z,54.97
2018-03-06T19:43:52.772Z,54.20
2018-03-06T19:46:20.028Z,53.63
2018-03-06T19:48:46.858Z,55.70
2018-03-06T19:51:13.916Z,54.00
2018-03-06T19:53:41.066Z,53.70
2018-03-06T19:56:07.887Z,53.40
2018-03-06T19:58:35.059Z,53.87
2018-03-06T20:01:01.910Z,56.10
2018-03-06T20:03:29.055Z,56.15
2018-03-06T20:05:55.914Z,57.05
2018-03-06T20:08:22.776Z,58.22
2018-03-06T20:10:49.898Z,55.92
2018-03-06T20:13:16.738Z,57.20
2018-03-06T20:15:43.611Z,58.22
2018-03-06T20:18:10.830Z,57.62
2018-03-06T20:20:37.691Z,56.92
2018-03-06T20:23:04.539Z,57.50
2018-03-06T20:25:31.451Z,64.05
2018-03-06T20:27:58.275Z,92.28
2018-03-06T20:30:25.120Z,69.60
2018-03-06T20:32:52.816Z,83.17
2018-03-06T20:35:19.652Z,67.75
2018-03-06T20:37:46.516Z,65.82
2018-03-06T20:40:13.388Z,59.83
2018-03-06T20:42:40.299Z,58.67
2018-03-06T20:45:07.161Z,59.13
2018-03-06T20:47:34.279Z,57.05
2018-03-06T20:50:01.427Z,55.83
2018-03-06T20:52:28.320Z,57.00
2018-03-06T20:54:55.438Z,56.53
2018-03-06T20:57:22.577Z,56.70
2018-03-06T20:59:49.453Z,57.07
2018-03-06T21:02:16.271Z,60.03
2018-03-06T21:04:43.416Z,60.60
2018-03-06T21:07:10.564Z,61.20
2018-03-06T21:09:37.721Z,67.28
2018-03-06T21:12:05.333Z,62.67
2018-03-06T21:14:32.419Z,57.40
2018-03-06T21:16:59.268Z,58.17
2018-03-06T21:19:26.196Z,57.90
2018-03-06T21:21:53.001Z,56.85
2018-03-06T21:24:20.098Z,56.97
2018-03-06T21:26:46.947Z,54.72
2018-03-06T21:29:13.841Z,57.50
2018-03-06T21:31:40.692Z,57.10
2018-03-06T21:34:07.540Z,56.70
2018-03-06T21:36:34.405Z,58.72
2018-03-06T21:39:01.577Z,59.38
2018-03-06T21:41:28.495Z,57.80
2018-03-06T21:43:55.562Z,56.20
2018-03-06T21:46:22.424Z,56.75
2018-03-06T21:48:49.350Z,57.50
2018-03-06T21:51:16.508Z,57.73
2018-03-06T21:53:43.376Z,57.83
2018-03-06T21:56:10.203Z,57.78
2018-03-06T21:58:37.339Z,58.37
2018-03-06T22:01:04.175Z,58.20
2018-03-06T22:03:31.058Z,58.67
2018-03-06T22:05:57.927Z,58.67
2018-03-06T22:08:24.803Z,57.03
2018-03-06T22:10:51.628Z,57.83
2018-03-06T22:13:18.807Z,58.28
2018-03-06T22:15:45.683Z,57.20
2018-03-06T22:18:12.547Z,58.37
2018-03-06T22:20:39.404Z,59.40
2018-03-06T22:23:06.274Z,58.65
2018-03-06T22:25:33.152Z,59.80
2018-03-06T22:28:00.274Z,58.65
2018-03-06T22:30:27.163Z,58.20
2018-03-06T22:32:54.277Z,57.28
2018-03-06T22:35:21.103Z,58.55
2018-03-06T22:37:48.268Z,57.65
2018-03-06T22:40:15.132Z,59.60
2018-03-06T22:42:41.987Z,58.33
2018-03-06T22:45:08.846Z,58.65
2018-03-06T22:47:35.700Z,58.87
2018-03-06T22:50:02.543Z,58.90
2018-03-06T22:52:29.423Z,59.83
2018-03-06T22:54:56.575Z,58.47
2018-03-06T22:57:24.348Z,55.92
2018-03-06T22:59:51.187Z,57.45
2018-03-06T23:02:18.263Z,58.05
2018-03-06T23:04:45.490Z,57.45
2018-03-06T23:07:12.343Z,57.67
2018-03-06T23:09:39.255Z,58.53
2018-03-06T23:12:06.324Z,59.67
2018-03-06T23:14:33.208Z,59.07
2018-03-06T23:17:00.440Z,59.10
2018-03-06T23:19:27.279Z,59.15
2018-03-06T23:21:54.188Z,58.45
2018-03-06T23:24:21.362Z,59.20
2018-03-06T23:26:48.509Z,62.22
2018-03-06T23:29:15.332Z,59.80
2018-03-06T23:31:42.200Z,58.92
2018-03-06T23:34:09.069Z,59.92
2018-03-06T23:36:35.945Z,61.65
2018-03-06T23:39:02.830Z,60.38
2018-03-06T23:41:29.659Z,60.28
2018-03-06T23:43:56.492Z,63.25
2018-03-06T23:46:23.341Z,62.00
2018-03-06T23:48:50.164Z,62.33
2018-03-06T23:51:17.007Z,60.08
2018-03-06T23:53:43.880Z,61.58
2018-03-06T23:56:10.744Z,61.57
2018-03-06T23:58:37.876Z,62.77
